sensor_id;sensor_type;location;lat;lon;timestamp;temperature;humidity
17565;DHT22;62994;52.126;5.596;2023-02-01T00:00:26;6.10;99.90
17565;DHT22;62994;52.126;5.596;2023-02-01T00:02:54;6.10;99.90
17565;DHT22;62994;52.126;5.596;2023-02-01T00:05:21;6.00;99.90
17565;DHT22;62994;52.126;5.596;2023-02-01T00:07:48;6.10;99.90
17565;DHT22;62994;52.126;5.596;2023-02-01T00:10:15;6.10;99.90
17565;DHT22;62994;52.126;5.596;2023-02-01T00:12:43;6.10;99.90
17565;DHT22;62994;52.126;5.596;2023-02-01T00:15:10;6.20;99.90
17565;DHT22;62994;52.126;5.596;2023-02-01T00:17:37;6.20;99.90
17565;DHT22;62994;52.126;5.596;2023-02-01T00:20:07;6.20;99.90
17565;DHT22;62994;52.126;5.596;2023-02-01T00:22:34;6.20;99.90
17565;DHT22;62994;52.126;5.596;2023-02-01T00:25:01;6.20;99.90
17565;DHT22;62994;52.126;5.596;2023-02-01T00:27:28;6.20;99.90
17565;DHT22;62994;52.126;5.596;2023-02-01T00:29:55;6.20;99.90
17565;DHT22;62994;52.126;5.596;2023-02-01T00:32:22;6.20;99.90
17565;DHT22;62994;52.126;5.596;2023-02-01T00:34:49;6.20;99.90
17565;DHT22;62994;52.126;5.596;2023-02-01T00:37:17;6.20;99.90
17565;DHT22;62994;52.126;5.596;2023-02-01T00:39:44;6.20;99.90
17565;DHT22;62994;52.126;5.596;2023-02-01T00:42:11;6.20;99.90
17565;DHT22;62994;52.126;5.596;2023-02-01T00:44:38;6.20;99.90
17565;DHT22;62994;52.126;5.596;2023-02-01T00:47:05;6.20;99.90
17565;DHT22;62994;52.126;5.596;2023-02-01T00:49:32;6.30;99.90
17565;DHT22;62994;52.126;5.596;2023-02-01T00:51:59;6.30;99.90
17565;DHT22;62994;52.126;5.596;2023-02-01T00:54:27;6.20;99.90
17565;DHT22;62994;52.126;5.596;2023-02-01T00:56:54;6.30;99.90
17565;DHT22;62994;52.126;5.596;2023-02-01T00:59:21;6.30;99.90
17565;DHT22;62994;52.126;5.596;2023-02-01T01:01:48;6.30;99.90
17565;DHT22;62994;52.126;5.596;2023-02-01T01:04:15;6.30;99.90
17565;DHT22;62994;52.126;5.596;2023-02-01T01:06:42;6.30;99.90
17565;DHT22;62994;52.126;5.596;2023-02-01T01:09:09;6.30;99.90
17565;DHT22;62994;52.126;5.596;2023-02-01T01:11:38;6.30;99.90
17565;DHT22;62994;52.126;5.596;2023-02-01T01:14:06;6.40;99.90
17565;DHT22;62994;52.126;5.596;2023-02-01T01:16:34;6.40;99.90
17565;DHT22;62994;52.126;5.596;2023-02-01T01:19:01;6.30;99.90
17565;DHT22;62994;52.126;5.596;2023-02-01T01:21:29;6.30;99.90
17565;DHT22;62994;52.126;5.596;2023-02-01T01:23:56;6.40;99.90
17565;DHT22;62994;52.126;5.596;2023-02-01T01:26:25;6.40;99.90
17565;DHT22;62994;52.126;5.596;2023-02-01T01:28:54;6.40;99.90
17565;DHT22;62994;52.126;5.596;2023-02-01T01:31:21;6.40;99.90
17565;DHT22;62994;52.126;5.596;2023-02-01T01:33:49;6.40;99.90
17565;DHT22;62994;52.126;5.596;2023-02-01T01:36:17;6.40;99.90
17565;DHT22;62994;52.126;5.596;2023-02-01T01:38:45;6.40;99.90
17565;DHT22;62994;52.126;5.596;2023-02-01T01:41:14;6.40;99.90
17565;DHT22;62994;52.126;5.596;2023-02-01T01:43:50;6.50;99.90
17565;DHT22;62994;52.126;5.596;2023-02-01T01:46:21;6.50;99.90
17565;DHT22;62994;52.126;5.596;2023-02-01T01:48:51;6.50;99.90
17565;DHT22;62994;52.126;5.596;2023-02-01T01:51:21;6.50;99.90
17565;DHT22;62994;52.126;5.596;2023-02-01T01:53:55;6.50;99.90
17565;DHT22;62994;52.126;5.596;2023-02-01T01:56:30;6.50;99.90
17565;DHT22;62994;52.126;5.596;2023-02-01T01:58:58;6.50;99.90
17565;DHT22;62994;52.126;5.596;2023-02-01T02:01:27;6.50;99.90
17565;DHT22;62994;52.126;5.596;2023-02-01T02:03:54;6.50;99.90
17565;DHT22;62994;52.126;5.596;2023-02-01T02:06:30;6.50;99.90
17565;DHT22;62994;52.126;5.596;2023-02-01T02:08:58;6.60;99.90
17565;DHT22;62994;52.126;5.596;2023-02-01T02:11:25;6.70;99.90
17565;DHT22;62994;52.126;5.596;2023-02-01T02:13:55;6.60;99.90
17565;DHT22;62994;52.126;5.596;2023-02-01T02:16:40;6.70;99.90
17565;DHT22;62994;52.126;5.596;2023-02-01T02:19:40;6.70;99.90
17565;DHT22;62994;52.126;5.596;2023-02-01T02:22:37;6.70;99.90
17565;DHT22;62994;52.126;5.596;2023-02-01T02:28:29;6.70;99.90
17565;DHT22;62994;52.126;5.596;2023-02-01T02:34:15;6.70;99.90
17565;DHT22;62994;52.126;5.596;2023-02-01T02:36:51;6.70;99.90
17565;DHT22;62994;52.126;5.596;2023-02-01T02:39:29;6.80;99.90
17565;DHT22;62994;52.126;5.596;2023-02-01T02:42:02;6.80;99.90
17565;DHT22;62994;52.126;5.596;2023-02-01T02:44:54;6.80;99.90
17565;DHT22;62994;52.126;5.596;2023-02-01T02:47:44;6.80;99.90
17565;DHT22;62994;52.126;5.596;2023-02-01T02:50:19;6.90;99.90
17565;DHT22;62994;52.126;5.596;2023-02-01T02:53:11;6.90;99.90
17565;DHT22;62994;52.126;5.596;2023-02-01T02:55:57;7.00;99.90
17565;DHT22;62994;52.126;5.596;2023-02-01T02:58:43;7.10;99.90
17565;DHT22;62994;52.126;5.596;2023-02-01T03:01:29;7.00;99.90
17565;DHT22;62994;52.126;5.596;2023-02-01T03:04:14;7.00;99.90
17565;DHT22;62994;52.126;5.596;2023-02-01T03:06:45;7.00;99.90
17565;DHT22;62994;52.126;5.596;2023-02-01T03:09:16;7.00;99.90
17565;DHT22;62994;52.126;5.596;2023-02-01T03:11:48;7.10;99.90
17565;DHT22;62994;52.126;5.596;2023-02-01T03:14:35;7.10;99.90
17565;DHT22;62994;52.126;5.596;2023-02-01T03:17:07;7.00;99.90
17565;DHT22;62994;52.126;5.596;2023-02-01T03:19:38;7.00;99.90
17565;DHT22;62994;52.126;5.596;2023-02-01T03:22:12;7.10;99.90
17565;DHT22;62994;52.126;5.596;2023-02-01T03:24:43;7.10;99.90
17565;DHT22;62994;52.126;5.596;2023-02-01T03:27:16;7.10;99.90
17565;DHT22;62994;52.126;5.596;2023-02-01T03:29:47;7.00;99.90
17565;DHT22;62994;52.126;5.596;2023-02-01T03:32:16;7.10;99.90
17565;DHT22;62994;52.126;5.596;2023-02-01T03:34:45;7.10;99.90
17565;DHT22;62994;52.126;5.596;2023-02-01T03:37:17;7.10;99.90
17565;DHT22;62994;52.126;5.596;2023-02-01T03:39:48;7.00;99.90
17565;DHT22;62994;52.126;5.596;2023-02-01T03:42:19;7.00;99.90
17565;DHT22;62994;52.126;5.596;2023-02-01T03:44:51;7.00;99.90
17565;DHT22;62994;52.126;5.596;2023-02-01T03:47:22;7.00;99.90
17565;DHT22;62994;52.126;5.596;2023-02-01T03:49:58;7.00;99.90
17565;DHT22;62994;52.126;5.596;2023-02-01T03:52:30;7.00;99.90
17565;DHT22;62994;52.126;5.596;2023-02-01T03:55:00;7.00;99.90
17565;DHT22;62994;52.126;5.596;2023-02-01T03:57:31;7.00;99.90
17565;DHT22;62994;52.126;5.596;2023-02-01T04:00:04;7.00;99.90
17565;DHT22;62994;52.126;5.596;2023-02-01T04:02:33;6.90;99.90
17565;DHT22;62994;52.126;5.596;2023-02-01T04:05:00;6.90;99.90
17565;DHT22;62994;52.126;5.596;2023-02-01T04:07:28;6.90;99.90
17565;DHT22;62994;52.126;5.596;2023-02-01T04:09:55;6.90;99.90
17565;DHT22;62994;52.126;5.596;2023-02-01T04:12:22;6.90;99.90
17565;DHT22;62994;52.126;5.596;2023-02-01T04:14:49;6.90;99.90
17565;DHT22;62994;52.126;5.596;2023-02-01T04:17:16;6.90;99.90
17565;DHT22;62994;52.126;5.596;2023-02-01T04:19:43;6.90;99.90
17565;DHT22;62994;52.126;5.596;2023-02-01T04:22:10;7.00;99.90
17565;DHT22;62994;52.126;5.596;2023-02-01T04:24:39;6.90;99.90
17565;DHT22;62994;52.126;5.596;2023-02-01T04:27:06;6.90;99.90
17565;DHT22;62994;52.126;5.596;2023-02-01T04:29:33;7.00;99.90
17565;DHT22;62994;52.126;5.596;2023-02-01T04:31:59;7.00;99.90
17565;DHT22;62994;52.126;5.596;2023-02-01T04:34:26;7.00;99.90
17565;DHT22;62994;52.126;5.596;2023-02-01T04:36:53;7.00;99.90
17565;DHT22;62994;52.126;5.596;2023-02-01T04:39:20;7.00;99.90
17565;DHT22;62994;52.126;5.596;2023-02-01T04:41:48;7.00;99.90
17565;DHT22;62994;52.126;5.596;2023-02-01T04:44:17;7.00;99.90
17565;DHT22;62994;52.126;5.596;2023-02-01T04:46:45;7.00;99.90
17565;DHT22;62994;52.126;5.596;2023-02-01T04:49:13;7.00;99.90
17565;DHT22;62994;52.126;5.596;2023-02-01T04:51:44;7.00;99.90
17565;DHT22;62994;52.126;5.596;2023-02-01T04:54:10;7.00;99.90
17565;DHT22;62994;52.126;5.596;2023-02-01T04:56:38;7.00;99.90
17565;DHT22;62994;52.126;5.596;2023-02-01T04:59:06;7.00;99.90
17565;DHT22;62994;52.126;5.596;2023-02-01T05:01:33;7.00;99.90
17565;DHT22;62994;52.126;5.596;2023-02-01T05:04:00;7.00;99.90
17565;DHT22;62994;52.126;5.596;2023-02-01T05:06:27;7.00;99.90
17565;DHT22;62994;52.126;5.596;2023-02-01T05:08:54;7.00;99.90
17565;DHT22;62994;52.126;5.596;2023-02-01T05:11:21;7.00;99.90
17565;DHT22;62994;52.126;5.596;2023-02-01T05:14:06;7.00;99.90
17565;DHT22;62994;52.126;5.596;2023-02-01T05:16:33;7.00;99.90
17565;DHT22;62994;52.126;5.596;2023-02-01T05:19:00;7.00;99.90
17565;DHT22;62994;52.126;5.596;2023-02-01T05:21:27;7.00;99.90
17565;DHT22;62994;52.126;5.596;2023-02-01T05:23:54;7.00;99.90
17565;DHT22;62994;52.126;5.596;2023-02-01T05:26:38;7.00;99.90
17565;DHT22;62994;52.126;5.596;2023-02-01T05:29:07;7.00;99.90
17565;DHT22;62994;52.126;5.596;2023-02-01T05:31:35;7.00;99.90
17565;DHT22;62994;52.126;5.596;2023-02-01T05:34:02;7.00;99.90
17565;DHT22;62994;52.126;5.596;2023-02-01T05:36:28;7.00;99.90
17565;DHT22;62994;52.126;5.596;2023-02-01T05:38:55;7.10;99.90
17565;DHT22;62994;52.126;5.596;2023-02-01T05:41:23;7.10;99.90
17565;DHT22;62994;52.126;5.596;2023-02-01T05:43:50;7.10;99.90
17565;DHT22;62994;52.126;5.596;2023-02-01T05:46:18;7.10;99.90
17565;DHT22;62994;52.126;5.596;2023-02-01T05:48:45;7.10;99.90
17565;DHT22;62994;52.126;5.596;2023-02-01T05:51:12;7.10;99.90
17565;DHT22;62994;52.126;5.596;2023-02-01T05:53:39;7.10;99.90
17565;DHT22;62994;52.126;5.596;2023-02-01T05:56:06;7.10;99.90
17565;DHT22;62994;52.126;5.596;2023-02-01T05:58:34;7.20;99.90
17565;DHT22;62994;52.126;5.596;2023-02-01T06:01:01;7.10;99.90
17565;DHT22;62994;52.126;5.596;2023-02-01T06:03:29;7.20;99.90
17565;DHT22;62994;52.126;5.596;2023-02-01T06:05:56;7.20;99.90
17565;DHT22;62994;52.126;5.596;2023-02-01T06:08:23;7.20;99.90
17565;DHT22;62994;52.126;5.596;2023-02-01T06:10:51;7.20;99.90
17565;DHT22;62994;52.126;5.596;2023-02-01T06:13:18;7.20;99.90
17565;DHT22;62994;52.126;5.596;2023-02-01T06:15:46;7.20;99.90
17565;DHT22;62994;52.126;5.596;2023-02-01T06:18:12;7.20;99.90
17565;DHT22;62994;52.126;5.596;2023-02-01T06:20:42;7.20;99.90
17565;DHT22;62994;52.126;5.596;2023-02-01T06:23:09;7.30;99.90
17565;DHT22;62994;52.126;5.596;2023-02-01T06:25:36;7.30;99.90
17565;DHT22;62994;52.126;5.596;2023-02-01T06:28:03;7.30;99.90
17565;DHT22;62994;52.126;5.596;2023-02-01T06:30:31;7.30;99.90
17565;DHT22;62994;52.126;5.596;2023-02-01T06:32:58;7.30;99.90
17565;DHT22;62994;52.126;5.596;2023-02-01T06:35:25;7.30;99.90
17565;DHT22;62994;52.126;5.596;2023-02-01T06:37:53;7.30;99.90
17565;DHT22;62994;52.126;5.596;2023-02-01T06:40:20;7.30;99.90
17565;DHT22;62994;52.126;5.596;2023-02-01T06:42:48;7.30;99.90
17565;DHT22;62994;52.126;5.596;2023-02-01T06:45:15;7.30;99.90
17565;DHT22;62994;52.126;5.596;2023-02-01T06:47:42;7.30;99.90
17565;DHT22;62994;52.126;5.596;2023-02-01T06:50:10;7.30;99.90
17565;DHT22;62994;52.126;5.596;2023-02-01T06:52:37;7.30;99.90
17565;DHT22;62994;52.126;5.596;2023-02-01T06:55:06;7.30;99.90
17565;DHT22;62994;52.126;5.596;2023-02-01T06:57:33;7.20;99.90
17565;DHT22;62994;52.126;5.596;2023-02-01T07:00:02;7.20;99.90
17565;DHT22;62994;52.126;5.596;2023-02-01T07:02:29;7.20;99.90
17565;DHT22;62994;52.126;5.596;2023-02-01T07:04:56;7.20;99.90
17565;DHT22;62994;52.126;5.596;2023-02-01T07:07:23;7.20;99.90
17565;DHT22;62994;52.126;5.596;2023-02-01T07:09:50;7.20;99.90
17565;DHT22;62994;52.126;5.596;2023-02-01T07:12:19;7.10;99.90
17565;DHT22;62994;52.126;5.596;2023-02-01T07:14:46;7.10;99.90
17565;DHT22;62994;52.126;5.596;2023-02-01T07:17:12;7.20;99.90
17565;DHT22;62994;52.126;5.596;2023-02-01T07:19:39;7.20;99.90
17565;DHT22;62994;52.126;5.596;2023-02-01T07:22:06;7.20;99.90
17565;DHT22;62994;52.126;5.596;2023-02-01T07:24:34;7.20;99.90
17565;DHT22;62994;52.126;5.596;2023-02-01T07:27:00;7.10;99.90
17565;DHT22;62994;52.126;5.596;2023-02-01T07:29:29;7.10;99.90
17565;DHT22;62994;52.126;5.596;2023-02-01T07:31:56;7.10;99.90
17565;DHT22;62994;52.126;5.596;2023-02-01T07:34:23;7.10;99.90
17565;DHT22;62994;52.126;5.596;2023-02-01T07:36:50;7.10;99.90
17565;DHT22;62994;52.126;5.596;2023-02-01T07:39:17;7.10;99.90
17565;DHT22;62994;52.126;5.596;2023-02-01T07:41:45;7.10;99.90
17565;DHT22;62994;52.126;5.596;2023-02-01T07:44:12;7.10;99.90
17565;DHT22;62994;52.126;5.596;2023-02-01T07:46:40;7.10;99.90
17565;DHT22;62994;52.126;5.596;2023-02-01T07:49:08;7.10;99.90
17565;DHT22;62994;52.126;5.596;2023-02-01T07:51:35;7.10;99.90
17565;DHT22;62994;52.126;5.596;2023-02-01T07:54:02;7.10;99.90
17565;DHT22;62994;52.126;5.596;2023-02-01T07:56:29;7.10;99.90
17565;DHT22;62994;52.126;5.596;2023-02-01T07:58:56;7.10;99.90
17565;DHT22;62994;52.126;5.596;2023-02-01T08:01:26;7.10;99.90
17565;DHT22;62994;52.126;5.596;2023-02-01T08:03:58;7.10;99.90
17565;DHT22;62994;52.126;5.596;2023-02-01T08:06:27;7.10;99.90
17565;DHT22;62994;52.126;5.596;2023-02-01T08:08:55;7.10;99.90
17565;DHT22;62994;52.126;5.596;2023-02-01T08:11:23;7.10;99.90
17565;DHT22;62994;52.126;5.596;2023-02-01T08:13:51;7.10;99.90
17565;DHT22;62994;52.126;5.596;2023-02-01T08:16:19;7.10;99.90
17565;DHT22;62994;52.126;5.596;2023-02-01T08:18:46;7.20;99.90
17565;DHT22;62994;52.126;5.596;2023-02-01T08:21:16;7.20;99.90
17565;DHT22;62994;52.126;5.596;2023-02-01T08:23:44;7.20;99.90
17565;DHT22;62994;52.126;5.596;2023-02-01T08:26:14;7.20;99.90
17565;DHT22;62994;52.126;5.596;2023-02-01T08:28:43;7.20;99.90
17565;DHT22;62994;52.126;5.596;2023-02-01T08:31:12;7.20;99.90
17565;DHT22;62994;52.126;5.596;2023-02-01T08:33:40;7.20;99.90
17565;DHT22;62994;52.126;5.596;2023-02-01T08:36:09;7.20;99.90
17565;DHT22;62994;52.126;5.596;2023-02-01T08:38:39;7.30;99.90
17565;DHT22;62994;52.126;5.596;2023-02-01T08:41:07;7.30;99.90
17565;DHT22;62994;52.126;5.596;2023-02-01T08:43:35;7.30;99.90
17565;DHT22;62994;52.126;5.596;2023-02-01T08:46:03;7.30;99.90
17565;DHT22;62994;52.126;5.596;2023-02-01T08:48:30;7.30;99.90
17565;DHT22;62994;52.126;5.596;2023-02-01T08:51:01;7.40;99.90
17565;DHT22;62994;52.126;5.596;2023-02-01T08:53:28;7.40;99.90
17565;DHT22;62994;52.126;5.596;2023-02-01T08:55:57;7.40;99.90
17565;DHT22;62994;52.126;5.596;2023-02-01T08:58:24;7.40;99.90
17565;DHT22;62994;52.126;5.596;2023-02-01T09:00:51;7.40;99.90
17565;DHT22;62994;52.126;5.596;2023-02-01T09:03:18;7.50;99.90
17565;DHT22;62994;52.126;5.596;2023-02-01T09:05:45;7.50;99.90
17565;DHT22;62994;52.126;5.596;2023-02-01T09:08:13;7.50;99.90
17565;DHT22;62994;52.126;5.596;2023-02-01T09:10:41;7.50;99.90
17565;DHT22;62994;52.126;5.596;2023-02-01T09:13:10;7.50;99.90
17565;DHT22;62994;52.126;5.596;2023-02-01T09:15:37;7.50;99.90
17565;DHT22;62994;52.126;5.596;2023-02-01T09:18:04;7.60;99.90
17565;DHT22;62994;52.126;5.596;2023-02-01T09:20:31;7.60;99.90
17565;DHT22;62994;52.126;5.596;2023-02-01T09:22:58;7.60;99.90
17565;DHT22;62994;52.126;5.596;2023-02-01T09:25:25;7.70;99.90
17565;DHT22;62994;52.126;5.596;2023-02-01T09:27:53;7.70;99.90
17565;DHT22;62994;52.126;5.596;2023-02-01T09:30:21;7.80;99.90
17565;DHT22;62994;52.126;5.596;2023-02-01T09:32:48;7.80;99.90
17565;DHT22;62994;52.126;5.596;2023-02-01T09:35:15;7.90;99.90
17565;DHT22;62994;52.126;5.596;2023-02-01T09:37:42;7.90;99.90
17565;DHT22;62994;52.126;5.596;2023-02-01T09:40:12;8.00;99.90
17565;DHT22;62994;52.126;5.596;2023-02-01T09:42:54;8.00;99.90
17565;DHT22;62994;52.126;5.596;2023-02-01T09:45:31;8.00;99.90
17565;DHT22;62994;52.126;5.596;2023-02-01T09:48:03;8.00;99.90
17565;DHT22;62994;52.126;5.596;2023-02-01T09:50:36;8.10;99.90
17565;DHT22;62994;52.126;5.596;2023-02-01T09:53:06;8.10;99.90
17565;DHT22;62994;52.126;5.596;2023-02-01T09:55:40;8.10;99.90
17565;DHT22;62994;52.126;5.596;2023-02-01T09:58:14;8.10;99.90
17565;DHT22;62994;52.126;5.596;2023-02-01T10:00:50;8.10;99.90
17565;DHT22;62994;52.126;5.596;2023-02-01T10:03:18;8.10;99.90
17565;DHT22;62994;52.126;5.596;2023-02-01T10:06:09;8.10;99.90
17565;DHT22;62994;52.126;5.596;2023-02-01T10:08:52;8.10;99.90
17565;DHT22;62994;52.126;5.596;2023-02-01T10:11:27;8.10;99.90
17565;DHT22;62994;52.126;5.596;2023-02-01T10:14:24;8.10;99.90
17565;DHT22;62994;52.126;5.596;2023-02-01T10:16:57;8.10;99.90
17565;DHT22;62994;52.126;5.596;2023-02-01T10:19:37;8.10;99.90
17565;DHT22;62994;52.126;5.596;2023-02-01T10:22:08;8.10;99.90
17565;DHT22;62994;52.126;5.596;2023-02-01T10:24:42;8.10;99.90
17565;DHT22;62994;52.126;5.596;2023-02-01T10:27:14;8.10;99.90
17565;DHT22;62994;52.126;5.596;2023-02-01T10:29:44;8.10;99.90
17565;DHT22;62994;52.126;5.596;2023-02-01T10:32:15;8.10;99.90
17565;DHT22;62994;52.126;5.596;2023-02-01T10:34:45;8.10;99.90
17565;DHT22;62994;52.126;5.596;2023-02-01T10:37:24;8.10;99.90
17565;DHT22;62994;52.126;5.596;2023-02-01T10:39:54;8.10;99.90
17565;DHT22;62994;52.126;5.596;2023-02-01T10:42:25;8.10;99.90
17565;DHT22;62994;52.126;5.596;2023-02-01T10:44:53;8.10;99.90
17565;DHT22;62994;52.126;5.596;2023-02-01T10:47:21;8.10;99.90
17565;DHT22;62994;52.126;5.596;2023-02-01T10:49:55;8.00;99.90
17565;DHT22;62994;52.126;5.596;2023-02-01T10:52:31;8.00;99.90
17565;DHT22;62994;52.126;5.596;2023-02-01T10:55:32;8.00;99.90
17565;DHT22;62994;52.126;5.596;2023-02-01T10:58:01;8.00;99.90
17565;DHT22;62994;52.126;5.596;2023-02-01T11:00:45;7.90;99.90
17565;DHT22;62994;52.126;5.596;2023-02-01T11:03:41;8.00;99.90
17565;DHT22;62994;52.126;5.596;2023-02-01T11:06:17;8.00;99.90
17565;DHT22;62994;52.126;5.596;2023-02-01T11:08:51;8.00;99.90
17565;DHT22;62994;52.126;5.596;2023-02-01T11:11:19;7.90;99.90
17565;DHT22;62994;52.126;5.596;2023-02-01T11:13:54;7.90;99.90
17565;DHT22;62994;52.126;5.596;2023-02-01T11:16:37;8.00;99.90
17565;DHT22;62994;52.126;5.596;2023-02-01T11:19:07;8.00;99.90
17565;DHT22;62994;52.126;5.596;2023-02-01T11:21:34;8.00;99.90
17565;DHT22;62994;52.126;5.596;2023-02-01T11:24:02;8.10;99.90
17565;DHT22;62994;52.126;5.596;2023-02-01T11:26:31;8.10;99.90
17565;DHT22;62994;52.126;5.596;2023-02-01T11:29:01;8.10;99.90
17565;DHT22;62994;52.126;5.596;2023-02-01T11:31:29;8.10;99.90
17565;DHT22;62994;52.126;5.596;2023-02-01T11:34:00;8.20;99.90
17565;DHT22;62994;52.126;5.596;2023-02-01T11:36:31;8.10;99.90
17565;DHT22;62994;52.126;5.596;2023-02-01T11:39:17;8.10;99.90
17565;DHT22;62994;52.126;5.596;2023-02-01T11:41:57;8.20;99.90
17565;DHT22;62994;52.126;5.596;2023-02-01T11:44:33;8.20;99.90
17565;DHT22;62994;52.126;5.596;2023-02-01T11:47:23;8.20;99.90
17565;DHT22;62994;52.126;5.596;2023-02-01T11:49:51;8.20;99.90
17565;DHT22;62994;52.126;5.596;2023-02-01T11:52:41;8.20;99.90
17565;DHT22;62994;52.126;5.596;2023-02-01T11:55:27;8.30;99.90
17565;DHT22;62994;52.126;5.596;2023-02-01T11:58:06;8.30;99.90
17565;DHT22;62994;52.126;5.596;2023-02-01T12:03:58;8.40;99.90
17565;DHT22;62994;52.126;5.596;2023-02-01T12:06:35;8.40;99.90
17565;DHT22;62994;52.126;5.596;2023-02-01T12:09:31;8.50;99.90
17565;DHT22;62994;52.126;5.596;2023-02-01T12:12:08;8.50;99.90
17565;DHT22;62994;52.126;5.596;2023-02-01T12:15:00;8.50;99.90
17565;DHT22;62994;52.126;5.596;2023-02-01T12:17:45;8.50;99.90
17565;DHT22;62994;52.126;5.596;2023-02-01T12:23:23;8.50;99.90
17565;DHT22;62994;52.126;5.596;2023-02-01T12:26:07;8.60;99.90
17565;DHT22;62994;52.126;5.596;2023-02-01T12:31:50;8.70;99.90
17565;DHT22;62994;52.126;5.596;2023-02-01T12:37:51;8.70;99.90
17565;DHT22;62994;52.126;5.596;2023-02-01T12:40:32;8.80;99.90
17565;DHT22;62994;52.126;5.596;2023-02-01T12:43:07;8.80;99.90
17565;DHT22;62994;52.126;5.596;2023-02-01T12:45:40;8.70;99.90
17565;DHT22;62994;52.126;5.596;2023-02-01T12:48:23;8.70;99.90
17565;DHT22;62994;52.126;5.596;2023-02-01T12:50:53;8.80;99.90
17565;DHT22;62994;52.126;5.596;2023-02-01T12:53:25;8.80;99.90
17565;DHT22;62994;52.126;5.596;2023-02-01T12:55:55;8.80;99.90
17565;DHT22;62994;52.126;5.596;2023-02-01T12:58:38;8.80;99.90
17565;DHT22;62994;52.126;5.596;2023-02-01T13:01:09;8.80;99.90
17565;DHT22;62994;52.126;5.596;2023-02-01T13:03:41;8.80;99.90
17565;DHT22;62994;52.126;5.596;2023-02-01T13:06:12;8.80;99.90
17565;DHT22;62994;52.126;5.596;2023-02-01T13:08:43;8.80;99.90
17565;DHT22;62994;52.126;5.596;2023-02-01T13:11:16;8.80;99.90
17565;DHT22;62994;52.126;5.596;2023-02-01T13:13:53;8.80;99.90
17565;DHT22;62994;52.126;5.596;2023-02-01T13:16:26;8.80;99.90
17565;DHT22;62994;52.126;5.596;2023-02-01T13:19:03;8.80;99.90
17565;DHT22;62994;52.126;5.596;2023-02-01T13:21:34;8.80;99.90
17565;DHT22;62994;52.126;5.596;2023-02-01T13:24:02;8.80;99.90
17565;DHT22;62994;52.126;5.596;2023-02-01T13:26:30;8.80;99.90
17565;DHT22;62994;52.126;5.596;2023-02-01T13:29:01;8.80;99.90
17565;DHT22;62994;52.126;5.596;2023-02-01T13:31:59;8.80;99.90
17565;DHT22;62994;52.126;5.596;2023-02-01T13:34:52;8.80;99.90
17565;DHT22;62994;52.126;5.596;2023-02-01T13:37:42;8.80;99.90
17565;DHT22;62994;52.126;5.596;2023-02-01T13:40:23;8.80;99.90
17565;DHT22;62994;52.126;5.596;2023-02-01T13:42:55;8.80;99.90
17565;DHT22;62994;52.126;5.596;2023-02-01T13:45:26;8.80;99.90
17565;DHT22;62994;52.126;5.596;2023-02-01T13:47:56;8.80;99.90
17565;DHT22;62994;52.126;5.596;2023-02-01T13:50:27;8.80;99.90
17565;DHT22;62994;52.126;5.596;2023-02-01T13:52:56;8.80;99.90
17565;DHT22;62994;52.126;5.596;2023-02-01T13:55:30;8.80;99.90
17565;DHT22;62994;52.126;5.596;2023-02-01T13:58:18;8.80;99.90
17565;DHT22;62994;52.126;5.596;2023-02-01T14:00:47;8.80;99.90
17565;DHT22;62994;52.126;5.596;2023-02-01T14:03:20;8.80;99.90
17565;DHT22;62994;52.126;5.596;2023-02-01T14:05:57;8.80;99.90
17565;DHT22;62994;52.126;5.596;2023-02-01T14:08:39;8.80;99.90
17565;DHT22;62994;52.126;5.596;2023-02-01T14:11:06;8.90;99.90
17565;DHT22;62994;52.126;5.596;2023-02-01T14:13:49;8.90;99.90
17565;DHT22;62994;52.126;5.596;2023-02-01T14:16:17;8.90;99.90
17565;DHT22;62994;52.126;5.596;2023-02-01T14:19:00;8.90;99.90
17565;DHT22;62994;52.126;5.596;2023-02-01T14:21:30;9.00;99.90
17565;DHT22;62994;52.126;5.596;2023-02-01T14:24:00;8.90;99.90
17565;DHT22;62994;52.126;5.596;2023-02-01T14:26:41;8.90;99.90
17565;DHT22;62994;52.126;5.596;2023-02-01T14:29:29;8.90;99.90
17565;DHT22;62994;52.126;5.596;2023-02-01T14:32:04;8.90;99.90
17565;DHT22;62994;52.126;5.596;2023-02-01T14:34:37;8.90;99.90
17565;DHT22;62994;52.126;5.596;2023-02-01T14:37:11;9.00;99.90
17565;DHT22;62994;52.126;5.596;2023-02-01T14:39:55;8.90;99.90
17565;DHT22;62994;52.126;5.596;2023-02-01T14:42:26;9.00;99.90
17565;DHT22;62994;52.126;5.596;2023-02-01T14:44:55;9.00;99.90
17565;DHT22;62994;52.126;5.596;2023-02-01T14:47:32;9.00;99.90
17565;DHT22;62994;52.126;5.596;2023-02-01T14:50:35;8.90;99.90
17565;DHT22;62994;52.126;5.596;2023-02-01T14:53:17;9.00;99.90
17565;DHT22;62994;52.126;5.596;2023-02-01T14:55:48;9.00;99.90
17565;DHT22;62994;52.126;5.596;2023-02-01T14:58:20;9.00;99.90
17565;DHT22;62994;52.126;5.596;2023-02-01T15:00:53;8.90;99.90
17565;DHT22;62994;52.126;5.596;2023-02-01T15:03:40;9.00;99.90
17565;DHT22;62994;52.126;5.596;2023-02-01T15:06:21;9.00;99.90
17565;DHT22;62994;52.126;5.596;2023-02-01T15:08:53;9.00;99.90
17565;DHT22;62994;52.126;5.596;2023-02-01T15:11:21;8.90;99.90
17565;DHT22;62994;52.126;5.596;2023-02-01T15:13:49;8.80;99.90
17565;DHT22;62994;52.126;5.596;2023-02-01T15:16:20;8.80;99.90
17565;DHT22;62994;52.126;5.596;2023-02-01T15:18:50;8.70;99.90
17565;DHT22;62994;52.126;5.596;2023-02-01T15:21:19;8.70;99.90
17565;DHT22;62994;52.126;5.596;2023-02-01T15:23:46;8.70;99.90
17565;DHT22;62994;52.126;5.596;2023-02-01T15:26:29;8.70;99.90
17565;DHT22;62994;52.126;5.596;2023-02-01T15:28:57;8.60;99.90
17565;DHT22;62994;52.126;5.596;2023-02-01T15:31:36;8.60;99.90
17565;DHT22;62994;52.126;5.596;2023-02-01T15:34:04;8.60;99.90
17565;DHT22;62994;52.126;5.596;2023-02-01T15:36:31;8.60;99.90
17565;DHT22;62994;52.126;5.596;2023-02-01T15:39:14;8.60;99.90
17565;DHT22;62994;52.126;5.596;2023-02-01T15:41:49;8.60;99.90
17565;DHT22;62994;52.126;5.596;2023-02-01T15:44:28;8.60;99.90
17565;DHT22;62994;52.126;5.596;2023-02-01T15:46:56;8.60;99.90
17565;DHT22;62994;52.126;5.596;2023-02-01T15:49:28;8.60;99.90
17565;DHT22;62994;52.126;5.596;2023-02-01T15:51:57;8.60;99.90
17565;DHT22;62994;52.126;5.596;2023-02-01T15:54:27;8.70;99.90
17565;DHT22;62994;52.126;5.596;2023-02-01T15:56:59;8.70;99.90
17565;DHT22;62994;52.126;5.596;2023-02-01T15:59:32;8.70;99.90
17565;DHT22;62994;52.126;5.596;2023-02-01T16:02:02;8.70;99.90
17565;DHT22;62994;52.126;5.596;2023-02-01T16:04:30;8.70;99.90
17565;DHT22;62994;52.126;5.596;2023-02-01T16:07:00;8.80;99.90
17565;DHT22;62994;52.126;5.596;2023-02-01T16:09:37;8.80;99.90
17565;DHT22;62994;52.126;5.596;2023-02-01T16:12:26;8.80;99.90
17565;DHT22;62994;52.126;5.596;2023-02-01T16:14:54;8.80;99.90
17565;DHT22;62994;52.126;5.596;2023-02-01T16:17:21;8.80;99.90
17565;DHT22;62994;52.126;5.596;2023-02-01T16:19:50;8.80;99.90
17565;DHT22;62994;52.126;5.596;2023-02-01T16:22:17;8.80;99.90
17565;DHT22;62994;52.126;5.596;2023-02-01T16:24:44;8.80;99.90
17565;DHT22;62994;52.126;5.596;2023-02-01T16:27:11;8.70;99.90
17565;DHT22;62994;52.126;5.596;2023-02-01T16:29:38;8.80;99.90
17565;DHT22;62994;52.126;5.596;2023-02-01T16:32:05;8.80;99.90